Bruceville Eddy, Texas
Current Conditions -  °F | °C
As of 1:55 AM on Monday 22 Dec 2014 (Local Time) from KPWG Reporting Station
Overcast Overcast  
Wind Chill: 55°   Ceiling: 2000
Heat Index: 55°   Visibility: 10mi
Dew Point: 46°   Wind: 14mph
Humidity: 72%   Direction: 200°SSW
Pressure: 29.73"   Gusts: 22mph
Location:  31.338°N, 97.2281°W
Report Text: KPWG 220755Z AUTO 20012G19KT 10SM OVC020 13/08 A2973 RMK AO1
Loading
Personal Weather Stations






























Interactive Weather Map New forecast layout! Learn more

10-Day Weather Forecast

Advertisements
Track Severe Weather on mobile